createdAt,value
2023-09-06T00:00:16.636Z,72.528407
2023-09-06T00:05:18.568Z,72.331922
2023-09-06T00:10:24.762Z,72.572822
2023-09-06T00:15:24.858Z,72.474436
2023-09-06T00:20:18.539Z,72.613034
2023-09-06T00:25:18.532Z,72.415978
2023-09-06T00:30:24.952Z,72.317449
2023-09-06T00:35:18.518Z,72.218920
2023-09-06T00:40:18.468Z,72.120391
2023-09-06T00:45:18.559Z,71.923332
2023-09-06T00:50:16.630Z,72.254451
2023-09-06T00:55:16.749Z,72.155781
2023-09-06T01:00:24.888Z,72.057111
2023-09-06T01:05:18.723Z,72.285948
2023-09-06T01:10:24.876Z,72.285948
2023-09-06T01:15:18.768Z,72.187139
2023-09-06T01:20:24.889Z,72.088330
2023-09-06T01:25:24.905Z,72.412435
2023-09-06T01:30:24.898Z,72.313489
2023-09-06T01:35:18.696Z,72.214543
2023-09-06T01:40:24.909Z,72.214543
2023-09-06T01:45:16.733Z,72.115596
2023-09-06T01:50:24.916Z,72.016650
2023-09-06T01:55:25.057Z,71.917703
2023-09-06T02:00:25.043Z,71.818755
2023-09-06T02:05:18.770Z,71.818755
2023-09-06T02:10:25.015Z,71.719808
2023-09-06T02:15:18.712Z,71.620860
2023-09-06T02:20:24.990Z,71.620860
2023-09-06T02:25:25.075Z,71.521913
2023-09-06T02:30:18.750Z,71.620860
2023-09-06T02:35:16.742Z,71.521913
2023-09-06T02:40:17.007Z,71.521913
2023-09-06T02:45:25.023Z,71.422965
2023-09-06T02:50:18.750Z,71.324016
2023-09-06T02:55:18.727Z,71.324016
2023-09-06T03:00:18.779Z,71.225068
2023-09-06T03:05:18.909Z,71.324016
2023-09-06T03:10:25.036Z,71.225068
2023-09-06T03:15:25.001Z,71.643568
2023-09-06T03:20:24.914Z,71.643568
2023-09-06T03:25:25.075Z,71.643568
2023-09-06T03:30:16.922Z,71.643568
2023-09-06T03:35:16.818Z,71.643568
2023-09-06T03:40:25.093Z,71.324016
2023-09-06T03:45:18.831Z,71.324016
2023-09-06T03:50:18.961Z,71.422965
2023-09-06T03:55:18.863Z,71.324016
2023-09-06T04:00:18.081Z,71.324016
2023-09-06T04:05:24.463Z,71.225068
2023-09-06T04:10:24.294Z,71.225068
2023-09-06T04:15:18.098Z,71.126119
2023-09-06T04:20:18.096Z,71.027170
2023-09-06T04:25:24.287Z,71.027170
2023-09-06T04:30:18.117Z,71.027170
2023-09-06T04:35:16.184Z,71.027170
2023-09-06T04:40:16.272Z,71.247231
2023-09-06T04:45:24.314Z,71.247231
2023-09-06T04:50:18.182Z,71.247231
2023-09-06T04:55:18.228Z,71.247231
2023-09-06T05:00:24.377Z,71.662478
2023-09-06T05:05:24.365Z,72.059351
2023-09-06T05:10:24.372Z,71.940819
2023-09-06T05:15:18.044Z,72.238067
2023-09-06T05:20:24.467Z,72.016650
2023-09-06T05:25:24.360Z,72.016650
2023-09-06T05:30:16.247Z,72.016650
2023-09-06T05:35:16.214Z,72.016650
2023-09-06T05:40:24.723Z,72.016650
2023-09-06T05:45:24.442Z,71.917703
2023-09-06T05:50:24.487Z,71.818755
2023-09-06T05:55:24.558Z,72.039902
2023-09-06T06:00:24.467Z,72.039902
2023-09-06T06:05:18.210Z,72.039902
2023-09-06T06:10:24.351Z,71.841735
2023-09-06T06:15:24.436Z,71.841735
2023-09-06T06:20:34.493Z,71.742652
2023-09-06T06:25:16.256Z,71.643568
2023-09-06T06:30:18.247Z,71.742652
2023-09-06T06:35:24.534Z,71.521913
2023-09-06T06:40:18.256Z,71.818755
2023-09-06T06:45:18.643Z,71.594282
2023-09-06T06:50:18.472Z,71.693092
2023-09-06T06:55:24.657Z,71.366414
2023-09-06T07:00:24.581Z,71.465086
2023-09-06T07:05:18.311Z,71.563757
2023-09-06T07:10:24.396Z,71.563757
2023-09-06T07:15:16.403Z,71.563757
2023-09-06T07:20:16.423Z,71.563757
2023-09-06T07:25:18.369Z,71.563757
2023-09-06T07:30:18.377Z,71.233614
2023-09-06T07:35:24.663Z,71.563757
2023-09-06T07:40:18.448Z,71.465086
2023-09-06T07:45:24.566Z,71.465086
2023-09-06T07:50:18.393Z,71.465086
2023-09-06T07:55:24.539Z,71.366414
2023-09-06T08:00:24.768Z,71.036549
2023-09-06T08:05:18.392Z,71.169069
2023-09-06T08:10:16.325Z,71.070397
2023-09-06T08:15:18.409Z,70.971724
2023-09-06T08:20:18.372Z,70.971724
2023-09-06T08:25:18.404Z,70.873050
2023-09-06T08:30:24.707Z,70.774377
2023-09-06T08:35:24.649Z,70.774377
2023-09-06T08:40:18.388Z,70.774377
2023-09-06T08:45:18.429Z,70.577029
2023-09-06T08:50:24.768Z,70.577029
2023-09-06T08:55:18.362Z,70.577029
2023-09-06T09:00:16.601Z,70.803792
2023-09-06T09:05:21.230Z,70.379680
2023-09-06T09:10:24.728Z,70.606166
2023-09-06T09:15:24.692Z,70.606166
2023-09-06T09:20:24.698Z,70.507353
2023-09-06T09:25:18.458Z,70.408540
2023-09-06T09:30:18.545Z,70.309727
2023-09-06T09:35:18.515Z,70.309727
2023-09-06T09:40:18.463Z,70.210913
2023-09-06T09:45:24.872Z,70.210913
2023-09-06T09:50:18.597Z,70.210913
2023-09-06T09:55:16.650Z,70.210913
2023-09-06T10:00:16.719Z,70.112099
2023-09-06T10:05:24.960Z,69.914471
2023-09-06T10:10:24.799Z,70.235570
2023-09-06T10:15:18.598Z,70.136619
2023-09-06T10:20:18.622Z,70.136619
2023-09-06T10:25:24.831Z,69.938717
2023-09-06T10:30:18.694Z,69.740813
2023-09-06T10:35:18.534Z,69.839765
2023-09-06T10:40:24.855Z,69.938717
2023-09-06T10:45:24.767Z,69.938717
2023-09-06T10:50:16.645Z,69.740813
2023-09-06T10:55:24.979Z,69.740813
2023-09-06T11:00:18.647Z,69.839765
2023-09-06T11:05:24.898Z,69.839765
2023-09-06T11:10:18.708Z,69.839765
2023-09-06T11:15:18.663Z,69.740813
2023-09-06T11:20:25.079Z,70.037668
2023-09-06T11:25:18.707Z,70.553634
2023-09-06T11:30:18.697Z,70.013285
2023-09-06T11:35:18.765Z,70.210913
2023-09-06T11:40:16.801Z,70.606166
2023-09-06T11:45:16.696Z,71.495471
2023-09-06T11:50:24.876Z,70.998606
2023-09-06T11:55:18.661Z,71.096997
2023-09-06T12:00:25.074Z,70.858236
2023-09-06T12:05:32.147Z,71.054732
2023-09-06T12:10:25.010Z,70.910098
2023-09-06T12:15:18.701Z,71.106305
2023-09-06T12:20:18.688Z,71.302509
2023-09-06T12:25:25.079Z,71.153231
2023-09-06T12:30:18.773Z,71.694914
2023-09-06T12:35:16.994Z,71.545053
2023-09-06T12:40:25.021Z,71.643007
2023-09-06T12:45:25.103Z,71.740961
2023-09-06T12:50:18.884Z,71.586645
2023-09-06T12:55:25.041Z,71.684451
2023-09-06T13:00:24.963Z,71.977867
2023-09-06T13:05:18.887Z,71.916358
2023-09-06T13:10:18.801Z,72.111666
2023-09-06T13:15:18.740Z,72.306973
2023-09-06T13:20:25.020Z,72.142704
2023-09-06T13:25:16.876Z,72.435207
2023-09-06T13:30:16.818Z,72.460721
2023-09-06T13:35:25.092Z,72.189480
2023-09-06T13:40:25.017Z,72.399065
2023-09-06T13:45:18.917Z,72.990100
2023-09-06T13:50:25.119Z,72.508281
2023-09-06T13:55:25.073Z,72.308164
2023-09-06T14:00:25.028Z,72.404551
2023-09-06T14:05:25.109Z,73.377213
2023-09-06T14:10:18.956Z,73.561142
2023-09-06T14:15:25.084Z,73.561142
2023-09-06T14:20:16.979Z,73.753897
2023-09-06T14:25:16.909Z,72.852533
2023-09-06T14:30:18.981Z,73.161187
2023-09-06T14:35:25.145Z,73.497416
2023-09-06T14:40:25.160Z,73.942073
2023-09-06T14:45:27.493Z,74.133456
2023-09-06T14:50:18.918Z,73.518759
2023-09-06T14:55:25.263Z,74.229146
2023-09-06T15:00:25.143Z,73.942073
2023-09-06T15:05:18.923Z,74.091862
2023-09-06T15:10:18.907Z,73.757529
2023-09-06T15:15:17.124Z,74.229146
2023-09-06T15:20:25.071Z,72.698000
2023-09-06T15:25:26.987Z,72.826304
2023-09-06T15:30:19.066Z,72.922180
2023-09-06T15:35:25.250Z,73.209802
2023-09-06T15:40:25.174Z,73.976757
2023-09-06T15:45:18.959Z,73.080807
2023-09-06T15:50:25.676Z,72.985106
2023-09-06T15:55:25.239Z,73.401545
2023-09-06T16:00:32.441Z,73.785023
2023-09-06T16:05:17.119Z,74.378402
2023-09-06T16:10:17.027Z,73.996347
2023-09-06T16:15:19.510Z,74.456077
2023-09-06T16:20:25.247Z,73.900832
2023-09-06T16:25:19.008Z,75.237972
2023-09-06T16:30:25.369Z,75.320404
2023-09-06T16:35:25.185Z,75.796102
2023-09-06T16:40:25.308Z,75.825271
2023-09-06T16:45:25.387Z,75.350497
2023-09-06T16:50:25.353Z,74.368936
2023-09-06T16:55:19.132Z,74.520211
2023-09-06T17:00:17.101Z,75.568801
2023-09-06T17:05:17.061Z,74.709497
2023-09-06T17:10:25.464Z,73.761668
2023-09-06T17:15:25.427Z,74.083476
2023-09-06T17:20:25.350Z,74.083476
2023-09-06T17:25:25.280Z,73.451146
2023-09-06T17:30:25.370Z,74.329546
2023-09-06T17:35:19.243Z,74.520211
2023-09-06T17:40:25.658Z,73.831049
2023-09-06T17:45:25.387Z,73.382508
2023-09-06T17:50:25.409Z,73.736075
2023-09-06T17:55:17.215Z,73.641099
2023-09-06T18:00:19.178Z,74.615542
2023-09-06T18:05:19.414Z,73.572090
2023-09-06T18:10:25.437Z,74.806202
2023-09-06T18:15:25.413Z,74.020994
2023-09-06T18:20:25.452Z,74.464087
2023-09-06T18:25:19.444Z,74.305904
2023-09-06T18:30:19.217Z,74.330378
2023-09-06T18:35:25.436Z,73.694737
2023-09-06T18:40:25.503Z,73.600328
2023-09-06T18:45:17.216Z,72.561248
2023-09-06T18:50:17.609Z,73.883551
2023-09-06T18:55:25.533Z,73.413735
2023-09-06T19:00:25.453Z,72.360400
2023-09-06T19:05:19.205Z,72.360400
2023-09-06T19:10:19.763Z,73.413735
2023-09-06T19:15:25.457Z,72.360400
2023-09-06T19:20:25.443Z,73.413735
2023-09-06T19:25:19.260Z,72.843335
2023-09-06T19:30:19.314Z,72.454233
2023-09-06T19:35:19.291Z,72.548065
2023-09-06T19:40:17.550Z,72.151408
2023-09-06T19:45:17.402Z,73.413735
2023-09-06T19:50:19.377Z,72.151408
2023-09-06T19:55:25.569Z,72.151408
2023-09-06T20:00:25.642Z,73.125412
2023-09-06T20:05:25.889Z,73.031388
2023-09-06T20:10:25.551Z,72.454233
2023-09-06T20:15:25.565Z,73.602167
2023-09-06T20:20:19.420Z,73.031388
2023-09-06T20:25:25.637Z,72.641896
2023-09-06T20:30:19.324Z,73.219436
2023-09-06T20:35:17.630Z,73.507952
2023-09-06T20:40:25.639Z,73.413735
2023-09-06T20:45:25.616Z,72.937362
2023-09-06T20:50:25.649Z,73.883551
2023-09-06T20:55:19.415Z,73.413735
2023-09-06T21:00:19.434Z,73.789144
2023-09-06T21:05:19.465Z,73.131077
2023-09-06T21:10:25.611Z,74.157816
2023-09-06T21:15:19.424Z,74.519939
2023-09-06T21:20:19.535Z,74.063221
2023-09-06T21:25:17.542Z,73.968624
2023-09-06T21:30:17.474Z,73.874027
2023-09-06T21:35:19.487Z,74.780734
2023-09-06T21:40:19.564Z,74.685770
2023-09-06T21:45:19.511Z,75.568801
2023-09-06T21:50:25.796Z,75.854761
2023-09-06T21:55:25.681Z,75.759442
2023-09-06T22:00:17.523Z,76.756522
2023-09-06T22:05:15.638Z,76.693782
2023-09-06T22:10:19.636Z,76.528207
2023-09-06T22:15:23.837Z,76.948889
2023-09-06T22:20:17.520Z,76.562809
2023-09-06T22:25:24.012Z,75.470103
2023-09-06T22:30:18.584Z,75.681284
2023-09-06T22:35:18.536Z,75.887140
2023-09-06T22:40:16.663Z,76.087796
2023-09-06T22:45:18.558Z,75.404499
2023-09-06T22:50:18.589Z,75.507648
2023-09-06T22:55:18.601Z,74.825306
2023-09-06T23:00:18.626Z,74.535700
2023-09-06T23:05:18.627Z,75.024267
2023-09-06T23:10:18.624Z,75.115798
2023-09-06T23:15:24.742Z,75.186215
2023-09-06T23:20:24.851Z,75.236338
2023-09-06T23:25:24.806Z,74.552859
2023-09-06T23:30:16.721Z,74.520626
2023-09-06T23:35:16.757Z,74.679379
2023-09-06T23:40:24.906Z,74.189670
2023-09-06T23:45:18.659Z,73.993783
2023-09-06T23:50:25.014Z,73.797894
2023-09-06T23:55:24.944Z,73.853027
